Time;durP1;ratioP1;P1;durP2;ratioP2;P2;SDS_P1;SDS_P2;PMS_P1;PMS_P2;Temp;Humidity;BMP_temperature;BMP_pressure;BME280_temperature;BME280_humidity;BME280_pressure;Samples;Min_cycle;Max_cycle;Signal;HPM_P1;HPM_P2
2022/09/01 00:01:19;;;;;;;2.53;1.20;;;11.50;99.90;;;;;;5047038;28;20427;-47
2022/09/01 00:03:51;;;;;;;3.55;1.00;;;11.20;99.90;;;;;;5047414;28;20048;-44
2022/09/01 00:06:23;;;;;;;5.22;1.17;;;11.10;99.90;;;;;;5046886;28;20072;-44
2022/09/01 00:08:50;;;;;;;;;;;11.00;99.90;;;;;;5047256;28;20045;-44
2022/09/01 00:11:16;;;;;;;2.85;1.38;;;10.80;99.90;;;;;;5046745;28;19999;-46
2022/09/01 00:13:41;;;;;;;2.65;1.27;;;10.50;99.90;;;;;;5047715;28;20057;-46
2022/09/01 00:16:08;;;;;;;2.22;1.20;;;11.20;99.90;;;;;;5048446;28;20053;-43
2022/09/01 00:18:34;;;;;;;3.70;1.70;;;10.60;99.90;;;;;;5048010;28;20079;-47
2022/09/01 00:21:00;;;;;;;4.07;1.50;;;10.50;99.90;;;;;;5048023;28;20165;-44
2022/09/01 00:23:27;;;;;;;2.20;1.33;;;10.50;99.90;;;;;;5048177;28;20344;-47
2022/09/01 00:25:53;;;;;;;3.03;1.52;;;10.40;99.90;;;;;;5048014;28;20033;-43
2022/09/01 00:28:18;;;;;;;3.55;1.52;;;10.40;99.90;;;;;;5047887;28;20087;-44
2022/09/01 00:30:44;;;;;;;3.80;1.98;;;10.30;99.90;;;;;;5047485;28;20257;-48
2022/09/01 00:33:10;;;;;;;2.30;1.55;;;10.20;99.90;;;;;;5047646;28;20053;-45
2022/09/01 00:35:36;;;;;;;2.88;1.40;;;10.70;99.90;;;;;;5047253;28;20037;-45
2022/09/01 00:38:02;;;;;;;3.72;1.50;;;10.20;99.90;;;;;;5047739;28;20063;-48
2022/09/01 00:40:28;;;;;;;4.28;1.50;;;9.90;99.90;;;;;;5047572;28;20412;-42
2022/09/01 00:42:53;;;;;;;2.40;1.60;;;10.80;99.90;;;;;;5047557;28;20090;-43
2022/09/01 00:45:21;;;;;;;3.08;1.42;;;10.40;99.90;;;;;;5047402;28;20479;-44
2022/09/01 00:47:48;;;;;;;3.65;1.42;;;10.20;99.90;;;;;;5045761;28;20060;-44
2022/09/01 00:50:16;;;;;;;3.40;1.38;;;10.00;99.90;;;;;;5046983;28;20581;-44
2022/09/01 00:52:48;;;;;;;2.80;1.58;;;10.30;99.90;;;;;;5047256;28;20037;-45
2022/09/01 00:55:20;;;;;;;2.45;1.63;;;10.80;99.90;;;;;;5047258;28;20412;-43
2022/09/01 00:57:46;;;;;;;2.92;1.38;;;10.50;99.90;;;;;;5047239;28;20041;-43
2022/09/01 01:00:24;;;;;;;2.30;1.23;;;10.50;99.90;;;;;;5047048;28;20132;-43
2022/09/01 01:02:54;;;;;;;2.33;1.55;;;10.20;99.90;;;;;;5047103;28;20064;-44
2022/09/01 01:05:22;;;;;;;2.35;1.35;;;10.50;99.90;;;;;;5047109;28;20112;-43
2022/09/01 01:07:49;;;;;;;3.45;1.45;;;10.60;99.90;;;;;;5047400;28;20076;-44
2022/09/01 01:10:16;;;;;;;2.30;1.60;;;10.10;99.90;;;;;;5047480;28;20061;-44
2022/09/01 01:12:43;;;;;;;3.35;1.77;;;10.50;99.90;;;;;;5047429;28;20048;-43
2022/09/01 01:15:12;;;;;;;2.20;1.33;;;10.60;99.90;;;;;;5047111;28;20140;-44
2022/09/01 01:17:38;;;;;;;3.00;1.17;;;10.40;99.90;;;;;;5047280;28;20049;-43
2022/09/01 01:23:02;;;;;;;2.22;1.30;;;10.10;99.90;;;;;;5049981;28;20047;-45
2022/09/01 01:25:31;;;;;;;2.58;1.73;;;;;;;;;;5053832;28;20386;-43
2022/09/01 01:28:11;;;;;;;2.85;1.27;;;9.90;99.90;;;;;;5053514;28;20036;-45
2022/09/01 01:30:40;;;;;;;2.10;1.40;;;10.00;99.90;;;;;;5051592;28;20053;-46
2022/09/01 01:33:06;;;;;;;2.20;1.30;;;10.50;99.90;;;;;;5053606;28;20514;-44
2022/09/01 01:35:33;;;;;;;2.90;1.35;;;10.20;99.90;;;;;;5053121;28;20068;-43
2022/09/01 01:38:01;;;;;;;3.25;1.67;;;10.40;99.90;;;;;;5053243;28;20341;-44
2022/09/01 01:40:28;;;;;;;5.75;1.95;;;10.10;99.90;;;;;;5053297;28;20153;-43
2022/09/01 01:42:56;;;;;;;4.10;1.25;;;;;;;;;;5053687;28;20525;-44
2022/09/01 01:45:23;;;;;;;1.90;1.10;;;;;;;;;;5053652;28;20068;-44
2022/09/01 01:47:51;;;;;;;4.50;1.60;;;;;;;;;;5053269;28;20041;-45
2022/09/01 01:50:18;;;;;;;2.00;1.40;;;;;;;;;;5053236;28;20055;-43
2022/09/01 01:52:44;;;;;;;3.30;1.35;;;;;;;;;;5053338;28;20044;-45
2022/09/01 01:55:11;;;;;;;1.92;1.08;;;;;;;;;;5053465;28;20037;-45
2022/09/01 01:57:47;;;;;;;1.80;1.40;;;;;;;;;;5053609;28;20165;-43
2022/09/01 02:00:18;;;;;;;2.03;1.20;;;;;;;;;;5053663;28;20414;-44
2022/09/01 02:02:51;;;;;;;2.22;1.40;;;;;;;;;;5053296;28;20479;-44
2022/09/01 02:05:23;;;;;;;2.72;1.15;;;;;;;;;;5053686;28;20041;-43
2022/09/01 02:07:49;;;;;;;;;;;;;;;;;;5053618;28;20403;-45
2022/09/01 02:10:16;;;;;;;5.15;1.42;;;;;;;;;;5053393;28;19924;-43
2022/09/01 02:12:42;;;;;;;2.03;1.38;;;;;;;;;;5053696;28;20049;-43
2022/09/01 02:15:11;;;;;;;2.28;1.63;;;;;;;;;;5053268;28;20090;-44
2022/09/01 02:17:41;;;;;;;2.47;1.60;;;;;;;;;;5053414;28;20045;-45
2022/09/01 02:20:50;;;;;;;3.67;1.40;;;;;;;;;;5053544;28;20377;-43
2022/09/01 02:23:48;;;;;;;3.22;1.90;;;;;;;;;;5053826;28;20041;-48
2022/09/01 02:26:30;;;;;;;3.42;1.30;;;;;;;;;;5053610;28;20041;-44
2022/09/01 02:29:07;;;;;;;;;;;;;;;;;;5053846;28;20040;-43
2022/09/01 02:31:46;;;;;;;2.97;1.65;;;;;;;;;;5053426;28;19928;-43
2022/09/01 02:34:24;;;;;;;3.05;1.50;;;;;;;;;;5049622;28;20406;-44
2022/09/01 02:37:10;;;;;;;3.70;1.60;;;;;;;;;;5049829;28;20040;-45
2022/09/01 02:40:18;;;;;;;3.53;1.67;;;;;;;;;;5050023;28;20047;-44
2022/09/01 02:43:27;;;;;;;2.53;1.48;;;;;;;;;;5049328;28;20053;-44
2022/09/01 02:46:36;;;;;;;2.35;1.42;;;;;;;;;;5049856;28;20044;-43
2022/09/01 02:49:44;;;;;;;2.67;1.85;;;;;;;;;;5049656;28;20407;-45
2022/09/01 02:52:14;;;;;;;3.95;1.50;;;;;;;;;;5049166;28;20079;-46
2022/09/01 02:54:57;;;;;;;3.42;1.90;;;;;;;;;;5049202;28;20059;-44
2022/09/01 02:57:47;;;;;;;3.20;1.20;;;;;;;;;;5049664;28;20048;-43
2022/09/01 03:00:31;;;;;;;2.00;1.20;;;;;;;;;;5049768;28;20079;-44
2022/09/01 03:03:11;;;;;;;4.88;1.35;;;;;;;;;;5049865;28;20055;-43
2022/09/01 03:05:43;;;;;;;2.17;1.40;;;;;;;;;;5049400;28;20562;-43
2022/09/01 03:08:20;;;;;;;2.50;1.40;;;;;;;;;;5049343;28;20669;-44
2022/09/01 03:10:53;;;;;;;3.35;1.23;;;;;;;;;;5049320;28;20041;-43
2022/09/01 03:13:29;;;;;;;5.38;1.55;;;;;;;;;;5049003;28;20064;-44
2022/09/01 03:16:01;;;;;;;2.95;1.50;;;;;;;;;;5049031;28;20478;-43
2022/09/01 03:18:32;;;;;;;3.33;1.40;;;;;;;;;;5049342;28;20049;-45
2022/09/01 03:21:07;;;;;;;2.13;1.10;;;;;;;;;;5048965;28;20049;-45
2022/09/01 03:23:38;;;;;;;2.38;1.80;;;;;;;;;;5049321;28;20045;-45
2022/09/01 03:26:12;;;;;;;2.93;1.63;;;;;;;;;;5049020;28;20045;-44
2022/09/01 03:28:41;;;;;;;3.50;1.30;;;;;;;;;;5049345;28;20629;-45
2022/09/01 03:31:12;;;;;;;1.98;1.33;;;;;;;;;;5049034;28;20036;-43
2022/09/01 03:33:41;;;;;;;2.75;1.75;;;;;;;;;;5049052;28;20040;-44
2022/09/01 03:36:18;;;;;;;3.42;1.80;;;;;;;;;;5048524;28;20586;-44
2022/09/01 03:38:50;;;;;;;3.58;1.55;;;;;;;;;;5048792;28;20163;-45
2022/09/01 03:41:21;;;;;;;;;;;;;;;;;;5049291;28;20497;-43
2022/09/01 03:43:56;;;;;;;2.65;1.70;;;;;;;;;;5048623;28;19920;-44
2022/09/01 03:46:31;;;;;;;2.80;1.80;;;;;;;;;;5048604;28;20080;-44
2022/09/01 03:49:02;;;;;;;3.83;1.40;;;;;;;;;;5048804;28;20044;-44
2022/09/01 03:51:29;;;;;;;3.45;1.50;;;10.00;99.90;;;;;;5048475;28;20556;-43
2022/09/01 03:53:56;;;;;;;3.33;1.80;;;10.40;99.90;;;;;;5048604;28;20048;-44
2022/09/01 03:56:24;;;;;;;3.15;1.73;;;10.50;99.90;;;;;;5048752;28;20049;-43
2022/09/01 03:58:51;;;;;;;3.33;1.67;;;10.50;99.90;;;;;;5048625;28;20067;-44
2022/09/01 04:01:18;;;;;;;3.28;1.67;;;10.70;99.90;;;;;;5048437;28;20098;-45
2022/09/01 04:03:46;;;;;;;3.70;1.77;;;10.50;99.90;;;;;;5047077;28;20061;-44
2022/09/01 04:06:12;;;;;;;3.88;1.90;;;10.40;99.90;;;;;;5048531;28;20182;-43
2022/09/01 04:08:38;;;;;;;2.65;1.95;;;10.70;99.90;;;;;;5048265;28;20590;-43
2022/09/01 04:11:12;;;;;;;6.00;1.80;;;9.50;99.90;;;;;;5048432;28;20041;-42
2022/09/01 04:13:39;;;;;;;3.03;1.42;;;10.40;99.90;;;;;;5047478;28;20048;-43
2022/09/01 04:18:03;;;;;;;2.45;1.85;;;9.60;99.90;;;;;;5047731;28;20055;-44
2022/09/01 04:18:55;;;;;;;3.90;1.70;;;10.30;99.90;;;;;;5047682;28;20080;-45
2022/09/01 04:21:20;;;;;;;2.63;1.90;;;10.30;99.90;;;;;;5048063;28;20141;-45
2022/09/01 04:23:47;;;;;;;2.22;1.40;;;10.00;99.90;;;;;;5048207;28;20448;-44
2022/09/01 04:26:19;;;;;;;3.17;2.00;;;10.60;99.90;;;;;;5047853;28;20124;-43
2022/09/01 04:28:48;;;;;;;3.07;1.43;;;10.10;99.90;;;;;;5048292;28;20490;-45
2022/09/01 04:31:19;;;;;;;3.17;1.80;;;10.30;99.90;;;;;;5048446;28;20386;-42
2022/09/01 04:33:48;;;;;;;2.00;1.52;;;10.20;99.90;;;;;;5047811;28;20072;-44
2022/09/01 04:36:26;;;;;;;4.53;2.30;;;10.50;99.90;;;;;;5048009;28;20433;-43
2022/09/01 04:38:59;;;;;;;4.32;1.80;;;10.70;99.90;;;;;;5047929;28;20091;-45
2022/09/01 04:41:29;;;;;;;3.35;1.92;;;10.50;99.90;;;;;;5048111;28;20059;-43
2022/09/01 04:43:56;;;;;;;5.30;2.22;;;10.50;99.90;;;;;;5047803;28;20037;-44
2022/09/01 04:46:24;;;;;;;2.72;1.70;;;10.70;99.90;;;;;;5048001;28;20119;-44
2022/09/01 04:48:54;;;;;;;7.20;2.40;;;10.50;99.90;;;;;;5047283;28;20101;-43
2022/09/01 04:51:21;;;;;;;3.03;1.95;;;10.80;99.90;;;;;;5047775;28;20093;-46
2022/09/01 04:53:47;;;;;;;3.10;1.70;;;10.60;99.90;;;;;;5047374;28;20049;-44
2022/09/01 04:56:18;;;;;;;2.85;1.73;;;10.60;99.90;;;;;;5047195;28;20550;-43
2022/09/01 04:58:48;;;;;;;4.72;2.15;;;10.70;99.90;;;;;;5047011;28;20091;-43
2022/09/01 05:01:17;;;;;;;2.90;1.80;;;10.30;99.90;;;;;;5047314;28;20080;-49
2022/09/01 05:03:44;;;;;;;4.22;1.90;;;10.50;99.90;;;;;;5047455;28;20163;-46
2022/09/01 05:06:18;;;;;;;3.20;1.88;;;10.70;99.90;;;;;;5047472;28;20041;-48
2022/09/01 05:08:45;;;;;;;4.22;1.95;;;10.70;99.90;;;;;;5047514;28;20047;-43
2022/09/01 05:11:15;;;;;;;3.33;2.20;;;11.30;99.90;;;;;;5045825;28;20174;-47
2022/09/01 05:13:46;;;;;;;2.28;1.70;;;11.10;99.90;;;;;;5047284;28;20060;-46
2022/09/01 05:16:15;;;;;;;3.92;2.03;;;10.60;99.90;;;;;;5047137;28;20040;-43
2022/09/01 05:18:46;;;;;;;3.83;2.22;;;11.00;99.90;;;;;;5045680;28;20451;-44
2022/09/01 05:21:17;;;;;;;3.35;1.83;;;10.90;99.90;;;;;;5047003;28;20048;-46
2022/09/01 05:23:45;;;;;;;2.42;1.85;;;11.30;99.90;;;;;;5047213;28;20041;-49
2022/09/01 05:26:17;;;;;;;1.88;1.40;;;11.60;99.90;;;;;;5046679;28;20051;-45
2022/09/01 05:28:45;;;;;;;2.97;1.42;;;11.40;99.90;;;;;;5046714;28;20041;-43
2022/09/01 05:31:11;;;;;;;2.90;1.67;;;11.50;99.90;;;;;;5046880;28;20069;-43
2022/09/01 05:33:44;;;;;;;3.15;1.83;;;11.90;99.90;;;;;;5047253;28;20049;-44
2022/09/01 05:36:12;;;;;;;4.45;1.73;;;11.50;99.90;;;;;;5046591;28;20056;-48
2022/09/01 05:38:40;;;;;;;2.65;1.52;;;12.40;99.90;;;;;;5046711;28;20040;-45
2022/09/01 05:41:08;;;;;;;3.42;1.50;;;12.70;99.90;;;;;;5046176;28;20548;-47
2022/09/01 05:43:35;;;;;;;2.33;1.40;;;12.00;99.90;;;;;;5046633;28;20087;-44
2022/09/01 05:46:06;;;;;;;2.10;1.20;;;12.20;99.90;;;;;;5046248;28;20051;-45
2022/09/01 05:48:33;;;;;;;3.40;1.15;;;11.90;99.90;;;;;;5046666;28;20118;-44
2022/09/01 05:50:59;;;;;;;1.73;1.00;;;12.20;99.90;;;;;;5045202;28;20055;-44
2022/09/01 05:53:27;;;;;;;3.45;1.70;;;12.30;99.90;;;;;;5046715;28;20041;-47
2022/09/01 05:55:55;;;;;;;3.13;1.75;;;12.30;99.90;;;;;;5046738;28;20033;-44
2022/09/01 05:58:23;;;;;;;1.77;1.08;;;12.50;99.90;;;;;;5046719;28;20048;-43
2022/09/01 06:00:50;;;;;;;4.20;1.30;;;12.50;99.90;;;;;;5046854;28;20056;-43
2022/09/01 06:03:16;;;;;;;2.75;1.25;;;13.30;99.90;;;;;;5046654;28;20398;-44
2022/09/01 06:05:44;;;;;;;3.40;1.17;;;12.50;99.90;;;;;;5045437;28;20075;-44
2022/09/01 06:08:12;;;;;;;5.05;1.65;;;12.80;99.90;;;;;;5046550;28;20118;-44
2022/09/01 06:10:40;;;;;;;2.70;1.05;;;13.30;99.90;;;;;;5049146;28;20385;-44
2022/09/01 06:13:07;;;;;;;3.53;1.45;;;14.70;99.90;;;;;;5049924;28;20571;-44
2022/09/01 06:15:40;;;;;;;2.83;1.10;;;15.50;99.90;;;;;;5050306;28;20083;-44
2022/09/01 06:18:10;;;;;;;2.67;0.90;;;15.70;99.90;;;;;;5050000;28;20037;-47
2022/09/01 06:20:39;;;;;;;3.88;1.20;;;15.30;99.90;;;;;;5049941;28;20052;-44
2022/09/01 06:23:05;;;;;;;3.47;0.82;;;15.40;99.90;;;;;;5049332;28;20144;-43
2022/09/01 06:25:31;;;;;;;1.42;0.70;;;15.80;99.90;;;;;;5049898;28;20072;-43
2022/09/01 06:27:59;;;;;;;1.48;0.60;;;17.90;99.90;;;;;;5049813;28;20154;-43
2022/09/01 06:30:25;;;;;;;2.97;1.08;;;19.40;99.90;;;;;;5049591;28;20222;-43
2022/09/01 06:32:53;;;;;;;2.10;1.00;;;19.50;99.90;;;;;;5049575;28;20507;-44
2022/09/01 06:35:20;;;;;;;2.42;0.80;;;18.90;99.90;;;;;;5050018;28;20040;-44
2022/09/01 06:37:47;;;;;;;2.08;0.90;;;18.20;99.90;;;;;;5049749;28;20037;-44
2022/09/01 06:40:18;;;;;;;1.65;0.93;;;17.60;99.90;;;;;;5049741;28;20051;-48
2022/09/01 06:42:46;;;;;;;2.78;1.20;;;17.50;99.90;;;;;;5050028;28;20198;-43
2022/09/01 06:45:16;;;;;;;2.15;0.75;;;17.80;99.90;;;;;;5048191;28;20061;-44
2022/09/01 06:47:43;;;;;;;3.08;1.00;;;17.30;99.90;;;;;;5049151;28;20518;-43
2022/09/01 06:50:12;;;;;;;1.75;0.98;;;16.90;99.90;;;;;;5049615;28;20105;-44
2022/09/01 06:52:39;;;;;;;3.13;0.90;;;16.80;99.90;;;;;;5049417;28;20043;-44
2022/09/01 06:55:05;;;;;;;2.90;0.80;;;16.50;99.90;;;;;;5048979;28;20099;-43
2022/09/01 06:57:31;;;;;;;2.90;0.80;;;16.40;99.90;;;;;;5049276;28;20045;-44
2022/09/01 06:59:56;;;;;;;6.03;0.70;;;16.40;99.90;;;;;;5049370;28;20067;-44
2022/09/01 07:02:23;;;;;;;1.42;0.68;;;16.10;99.90;;;;;;5049196;28;20493;-49
2022/09/01 07:04:50;;;;;;;3.05;0.80;;;16.00;99.90;;;;;;5049009;28;20048;-43
2022/09/01 07:07:15;;;;;;;5.85;0.68;;;15.90;99.90;;;;;;5048751;28;20049;-47
2022/09/01 07:09:41;;;;;;;4.30;1.00;;;16.00;99.90;;;;;;5049467;28;20179;-45
2022/09/01 07:12:07;;;;;;;4.63;1.00;;;16.00;99.90;;;;;;5049173;28;20068;-46
2022/09/01 07:14:35;;;;;;;5.65;0.80;;;16.10;99.90;;;;;;5048667;28;20171;-45
2022/09/01 07:17:00;;;;;;;4.18;0.75;;;16.40;99.90;;;;;;5049352;28;20149;-44
2022/09/01 07:19:26;;;;;;;6.28;0.77;;;16.30;99.90;;;;;;5049139;28;20151;-44
2022/09/01 07:21:52;;;;;;;1.42;0.60;;;16.40;99.90;;;;;;5048639;28;20094;-44
2022/09/01 07:24:19;;;;;;;3.28;1.00;;;16.40;99.90;;;;;;5048383;28;20049;-44
2022/09/01 07:26:49;;;;;;;3.20;0.82;;;16.30;99.90;;;;;;5048200;28;20373;-45
2022/09/01 07:29:16;;;;;;;4.18;0.60;;;16.30;99.90;;;;;;5048000;28;20040;-45
2022/09/01 07:31:43;;;;;;;4.10;0.88;;;16.30;99.90;;;;;;5048193;28;20048;-45
2022/09/01 07:34:12;;;;;;;2.08;0.82;;;16.30;99.90;;;;;;5048205;28;20033;-46
2022/09/01 07:36:42;;;;;;;2.08;0.55;;;16.30;99.90;;;;;;5047873;28;20053;-44
2022/09/01 07:39:08;;;;;;;2.40;1.02;;;16.30;99.90;;;;;;5048010;28;20045;-44
2022/09/01 07:41:34;;;;;;;2.65;0.70;;;16.30;99.90;;;;;;5048471;28;20041;-44
2022/09/01 07:44:02;;;;;;;3.35;1.48;;;16.40;99.90;;;;;;5048060;28;20059;-46
2022/09/01 07:46:30;;;;;;;1.48;0.70;;;16.40;99.90;;;;;;5047949;28;20045;-45
2022/09/01 07:48:56;;;;;;;2.17;0.65;;;16.40;99.90;;;;;;5048242;28;20458;-45
2022/09/01 07:51:25;;;;;;;6.65;0.95;;;16.50;99.90;;;;;;5048014;28;20237;-44
2022/09/01 07:53:52;;;;;;;3.08;0.65;;;16.70;99.90;;;;;;5048265;28;20114;-45
2022/09/01 07:56:19;;;;;;;2.15;0.70;;;16.60;99.90;;;;;;5046719;28;20493;-44
2022/09/01 07:58:47;;;;;;;5.95;1.02;;;16.70;99.90;;;;;;5047905;28;20044;-45
2022/09/01 08:01:19;;;;;;;4.80;0.50;;;16.90;99.90;;;;;;5048015;28;20048;-46
2022/09/01 08:03:48;;;;;;;3.22;0.60;;;17.00;99.90;;;;;;5047955;28;20041;-44
2022/09/01 08:06:18;;;;;;;1.42;0.57;;;17.10;99.90;;;;;;5047647;28;20104;-44
2022/09/01 08:08:44;;;;;;;1.55;0.68;;;17.20;99.90;;;;;;5047601;28;20073;-45
2022/09/01 08:11:16;;;;;;;3.92;0.40;;;17.40;99.90;;;;;;5047587;28;20044;-45
2022/09/01 08:13:42;;;;;;;5.97;0.70;;;17.50;99.90;;;;;;5047271;28;20471;-44
2022/09/01 08:16:09;;;;;;;1.38;0.50;;;17.80;99.90;;;;;;5047433;28;20098;-45
2022/09/01 08:18:35;;;;;;;2.58;0.60;;;18.30;99.90;;;;;;5047940;28;20395;-44
2022/09/01 08:21:06;;;;;;;4.65;0.80;;;19.30;99.90;;;;;;5047140;28;20051;-46
2022/09/01 08:23:32;;;;;;;1.40;0.40;;;21.50;97.50;;;;;;5046971;28;20520;-45
2022/09/01 08:25:57;;;;;;;2.05;0.40;;;23.50;92.70;;;;;;5047520;28;20037;-44
2022/09/01 08:28:23;;;;;;;1.70;0.70;;;25.40;86.60;;;;;;5046846;28;20045;-44
2022/09/01 08:30:49;;;;;;;2.45;0.40;;;26.60;78.60;;;;;;5047119;28;20136;-45
2022/09/01 08:33:14;;;;;;;1.80;0.55;;;27.30;72.60;;;;;;5045970;28;20045;-45
2022/09/01 08:35:42;;;;;;;2.25;0.43;;;27.90;70.20;;;;;;5046964;28;20044;-45
2022/09/01 08:38:08;;;;;;;1.42;0.20;;;28.30;67.60;;;;;;5047313;28;20045;-44
2022/09/01 08:40:34;;;;;;;4.10;0.43;;;28.90;66.80;;;;;;5047316;28;20055;-46
2022/09/01 08:43:37;;;;;;;1.60;0.30;;;29.30;66.40;;;;;;5047298;28;20110;-46
2022/09/01 08:46:33;;;;;;;0.75;0.40;;;29.90;61.20;;;;;;5047456;28;20441;-46
2022/09/01 08:49:02;;;;;;;3.28;0.30;;;30.50;61.10;;;;;;5046353;28;20049;-47
2022/09/01 08:51:51;;;;;;;2.25;0.20;;;31.20;61.00;;;;;;5046999;28;20045;-44
2022/09/01 08:54:28;;;;;;;3.30;0.30;;;31.90;60.60;;;;;;5047031;28;20257;-44
2022/09/01 08:56:59;;;;;;;0.88;0.22;;;32.60;56.60;;;;;;5046836;28;20045;-43
2022/09/01 08:59:26;;;;;;;2.42;0.30;;;33.20;55.80;;;;;;5046891;28;20053;-44
2022/09/01 09:02:13;;;;;;;2.28;0.20;;;33.30;54.60;;;;;;5045328;28;20054;-45
2022/09/01 09:04:51;;;;;;;2.47;0.20;;;34.10;53.90;;;;;;5046653;28;20049;-44
2022/09/01 09:07:39;;;;;;;3.47;0.50;;;34.60;53.10;;;;;;5046950;28;20057;-44
2022/09/01 09:10:04;;;;;;;1.10;0.20;;;35.20;52.20;;;;;;5046784;28;20047;-44
2022/09/01 09:12:54;;;;;;;1.60;0.20;;;35.30;50.40;;;;;;5046902;28;20037;-46
2022/09/01 09:15:32;;;;;;;1.63;0.20;;;35.70;49.10;;;;;;5044529;28;20053;-45
2022/09/01 09:18:12;;;;;;;1.30;0.10;;;35.80;48.70;;;;;;5046961;28;20048;-44
2022/09/01 09:20:38;;;;;;;0.70;0.10;;;35.60;47.60;;;;;;5046037;28;20041;-45
2022/09/01 09:23:14;;;;;;;1.08;0.32;;;35.90;48.00;;;;;;5046938;28;20048;-45
2022/09/01 09:25:40;;;;;;;1.65;0.10;;;35.70;47.80;;;;;;5046808;28;20372;-45
2022/09/01 09:28:05;;;;;;;5.57;0.15;;;35.30;47.40;;;;;;5046850;28;20056;-45
2022/09/01 09:30:31;;;;;;;0.60;0.10;;;34.70;47.70;;;;;;5046932;28;20049;-46
2022/09/01 09:33:09;;;;;;;0.85;0.15;;;34.10;48.80;;;;;;5047082;28;20116;-45
2022/09/01 09:35:43;;;;;;;0.75;0.20;;;33.30;46.10;;;;;;5046532;28;20045;-45
2022/09/01 09:38:18;;;;;;;2.83;0.20;;;33.20;48.80;;;;;;5046466;28;20045;-46
2022/09/01 09:41:18;;;;;;;1.70;0.20;;;32.90;49.20;;;;;;5044748;28;20403;-45
2022/09/01 09:44:00;;;;;;;1.20;0.10;;;32.80;49.20;;;;;;5040690;28;20068;-46
2022/09/01 09:46:32;;;;;;;0.32;0.10;;;32.50;49.20;;;;;;5049879;28;20056;-45
2022/09/01 09:49:29;;;;;;;3.58;0.20;;;32.30;49.10;;;;;;5049766;28;20048;-45
2022/09/01 09:52:01;;;;;;;1.33;0.17;;;32.20;48.30;;;;;;5049406;28;20406;-45
2022/09/01 09:54:29;;;;;;;1.13;0.20;;;32.00;50.60;;;;;;5049590;28;20041;-45
2022/09/01 09:57:07;;;;;;;0.68;0.10;;;31.90;49.90;;;;;;5049226;28;20487;-44
2022/09/01 09:59:46;;;;;;;2.53;0.20;;;31.60;48.10;;;;;;5049648;28;20445;-46
2022/09/01 10:02:35;;;;;;;0.77;0.20;;;31.10;49.80;;;;;;5049830;28;20041;-46
2022/09/01 10:05:27;;;;;;;1.95;0.10;;;30.60;49.50;;;;;;5050166;28;20044;-44
2022/09/01 10:07:54;;;;;;;1.30;0.20;;;30.40;49.80;;;;;;5049989;28;20099;-45
2022/09/01 10:10:39;;;;;;;2.00;0.10;;;30.10;49.70;;;;;;5049571;28;20041;-45
2022/09/01 10:13:10;;;;;;;0.82;0.30;;;30.10;49.90;;;;;;5049516;28;20077;-46
2022/09/01 10:15:37;;;;;;;1.50;0.10;;;30.20;49.60;;;;;;5049843;28;20091;-46
2022/09/01 10:18:17;;;;;;;1.13;0.10;;;29.90;49.30;;;;;;5050234;28;20379;-48
2022/09/01 10:20:55;;;;;;;0.55;0.10;;;29.00;48.40;;;;;;5049418;28;20041;-47
2022/09/01 10:23:20;;;;;;;1.10;0.28;;;28.00;50.20;;;;;;5049471;28;20045;-44
2022/09/01 10:25:49;;;;;;;2.55;0.15;;;27.70;51.30;;;;;;5047775;28;20078;-48
2022/09/01 10:28:22;;;;;;;0.85;0.10;;;27.60;52.20;;;;;;5049252;28;20041;-45
2022/09/01 10:30:51;;;;;;;0.50;0.10;;;27.80;51.70;;;;;;5047800;28;20449;-44
2022/09/01 10:33:19;;;;;;;2.58;0.20;;;28.20;51.70;;;;;;5048986;28;20068;-44
2022/09/01 10:35:48;;;;;;;1.25;0.10;;;28.40;50.10;;;;;;5048997;28;20048;-46
2022/09/01 10:38:18;;;;;;;1.30;0.10;;;27.90;50.20;;;;;;5048518;28;20432;-44
2022/09/01 10:41:05;;;;;;;0.60;0.10;;;27.90;50.80;;;;;;5048759;28;20032;-45
2022/09/01 10:43:46;;;;;;;2.58;0.10;;;27.90;50.80;;;;;;5048652;28;20131;-48
2022/09/01 10:46:21;;;;;;;0.90;0.10;;;27.60;50.80;;;;;;5048749;28;20048;-45
2022/09/01 10:48:52;;;;;;;0.45;0.10;;;27.00;51.00;;;;;;5048515;28;20055;-49
2022/09/01 10:51:38;;;;;;;3.33;0.23;;;26.40;51.40;;;;;;5048769;28;20045;-48
2022/09/01 10:54:05;;;;;;;5.05;0.13;;;25.80;52.20;;;;;;5047919;28;20307;-46
2022/09/01 10:56:48;;;;;;;2.08;0.10;;;25.10;52.30;;;;;;5047048;28;20206;-44
2022/09/01 10:59:27;;;;;;;1.30;0.20;;;24.80;52.40;;;;;;5048529;28;20052;-44
2022/09/01 11:01:53;;;;;;;1.65;0.10;;;24.40;54.10;;;;;;5048530;28;20114;-44
2022/09/01 11:04:31;;;;;;;2.17;0.10;;;24.20;54.60;;;;;;5048356;28;20045;-46
2022/09/01 11:07:05;;;;;;;0.63;0.17;;;24.10;55.10;;;;;;5048580;28;20056;-44
2022/09/01 11:09:39;;;;;;;1.08;0.10;;;24.00;55.60;;;;;;5048594;28;20525;-45
2022/09/01 11:12:14;;;;;;;0.80;0.10;;;23.90;55.70;;;;;;5048717;28;20119;-46
2022/09/01 11:14:51;;;;;;;0.50;0.10;;;23.80;56.80;;;;;;5048109;28;20505;-44
2022/09/01 11:17:19;;;;;;;1.55;0.10;;;23.40;56.60;;;;;;5048190;28;20071;-44
2022/09/01 11:20:09;;;;;;;6.10;0.20;;;23.10;56.70;;;;;;5048217;28;20056;-44
2022/09/01 11:22:45;;;;;;;0.55;0.10;;;23.00;57.00;;;;;;5047661;28;20047;-47
2022/09/01 11:25:32;;;;;;;0.80;0.10;;;22.90;57.20;;;;;;5048275;28;20090;-45
2022/09/01 11:28:05;;;;;;;0.57;0.00;;;22.90;57.50;;;;;;5046760;28;20056;-45
2022/09/01 11:30:30;;;;;;;0.63;0.10;;;22.90;58.80;;;;;;5046883;28;20372;-46
2022/09/01 11:33:05;;;;;;;1.10;0.65;;;22.80;58.70;;;;;;5047332;28;20048;-45
2022/09/01 11:35:31;;;;;;;3.70;0.10;;;23.00;58.70;;;;;;5047704;28;20077;-47
2022/09/01 11:38:04;;;;;;;1.88;0.10;;;23.00;58.30;;;;;;5047672;28;20581;-45
2022/09/01 11:40:32;;;;;;;4.45;0.10;;;23.10;57.80;;;;;;5047009;28;20060;-46
2022/09/01 11:43:05;;;;;;;1.77;0.10;;;23.10;58.50;;;;;;5047956;28;20073;-46
2022/09/01 11:45:35;;;;;;;2.42;0.10;;;23.20;58.00;;;;;;5047305;28;20072;-48
2022/09/01 11:48:08;;;;;;;0.90;0.10;;;23.10;58.10;;;;;;5046455;28;20057;-45
2022/09/01 11:50:37;;;;;;;1.90;0.10;;;22.90;58.20;;;;;;5047357;28;20048;-46
2022/09/01 11:53:12;;;;;;;1.15;0.10;;;22.90;58.60;;;;;;5047686;28;20044;-45
2022/09/01 11:55:39;;;;;;;1.70;0.10;;;22.90;59.00;;;;;;5046837;28;20604;-46
2022/09/01 11:58:10;;;;;;;1.00;0.15;;;23.00;59.50;;;;;;5046965;28;20128;-47
2022/09/01 12:00:39;;;;;;;0.85;0.10;;;23.00;58.10;;;;;;5046713;28;20049;-49
2022/09/01 12:03:24;;;;;;;1.63;0.10;;;23.10;57.70;;;;;;5047463;28;20485;-47
2022/09/01 12:06:07;;;;;;;1.27;0.20;;;23.20;58.30;;;;;;5047099;28;20402;-46
2022/09/01 12:08:35;;;;;;;2.65;0.22;;;23.20;59.90;;;;;;5047008;28;20206;-46
2022/09/01 12:11:21;;;;;;;0.50;0.10;;;23.20;59.20;;;;;;5046823;28;20108;-45
2022/09/01 12:14:02;;;;;;;1.85;0.10;;;23.30;58.50;;;;;;5046274;28;20570;-45
2022/09/01 12:16:29;;;;;;;1.67;0.10;;;23.50;57.70;;;;;;5046938;28;20111;-45
2022/09/01 12:18:57;;;;;;;4.88;0.10;;;23.50;58.00;;;;;;5046574;28;20125;-44
2022/09/01 12:21:41;;;;;;;1.10;0.10;;;23.50;58.60;;;;;;5046429;28;20510;-45
2022/09/01 12:24:25;;;;;;;0.73;0.10;;;23.60;58.30;;;;;;5045218;28;20040;-49
2022/09/01 12:26:54;;;;;;;2.97;0.10;;;23.60;56.90;;;;;;5046550;28;20445;-47
2022/09/01 12:29:22;;;;;;;1.85;0.17;;;23.60;57.20;;;;;;5046697;28;20495;-45
2022/09/01 12:31:51;;;;;;;2.35;0.10;;;23.50;58.50;;;;;;5046911;28;20045;-46
2022/09/01 12:34:31;;;;;;;1.67;0.17;;;23.20;58.40;;;;;;5047014;28;20127;-48
2022/09/01 12:37:14;;;;;;;3.10;0.10;;;22.90;59.20;;;;;;5046287;28;20124;-46
2022/09/01 12:39:43;;;;;;;2.75;0.10;;;22.70;60.80;;;;;;5046800;28;20052;-50
2022/09/01 12:42:11;;;;;;;3.67;0.10;;;22.80;61.00;;;;;;5046637;28;20090;-44
2022/09/01 12:44:37;;;;;;;1.08;0.10;;;23.00;61.40;;;;;;5046452;28;20095;-44
2022/09/01 12:47:12;;;;;;;0.85;0.10;;;23.20;60.60;;;;;;5046647;28;20049;-46
2022/09/01 12:49:40;;;;;;;1.88;0.10;;;23.40;59.40;;;;;;5046483;28;20507;-44
2022/09/01 12:52:13;;;;;;;1.10;0.10;;;23.40;59.40;;;;;;5046840;28;20495;-47
2022/09/01 12:54:39;;;;;;;6.53;0.40;;;23.20;58.50;;;;;;5044847;28;20418;-46
2022/09/01 12:57:05;;;;;;;3.53;0.10;;;23.00;59.30;;;;;;5046689;28;20060;-45
2022/09/01 12:59:31;;;;;;;1.08;0.20;;;22.80;59.20;;;;;;5046741;28;20048;-45
2022/09/01 13:01:56;;;;;;;0.88;0.10;;;22.50;59.50;;;;;;5046394;28;20037;-45
2022/09/01 13:04:24;;;;;;;1.98;0.30;;;22.30;60.00;;;;;;5046101;28;20108;-45
2022/09/01 13:06:51;;;;;;;0.75;0.13;;;22.10;60.60;;;;;;5046417;28;20045;-44
2022/09/01 13:09:18;;;;;;;1.13;0.10;;;21.90;60.80;;;;;;5046997;28;20394;-44
2022/09/01 13:11:46;;;;;;;2.15;0.65;;;21.90;60.80;;;;;;5046864;28;20040;-45
2022/09/01 13:14:13;;;;;;;1.63;0.20;;;22.10;61.10;;;;;;5046641;28;20136;-47
2022/09/01 13:16:39;;;;;;;1.20;0.10;;;22.30;61.30;;;;;;5046635;28;20374;-46
2022/09/01 13:19:05;;;;;;;0.77;0.10;;;22.60;60.90;;;;;;5045422;28;20594;-46
2022/09/01 13:21:33;;;;;;;4.53;0.30;;;22.70;60.90;;;;;;5046251;28;20091;-45
2022/09/01 13:24:01;;;;;;;0.30;0.10;;;22.60;61.20;;;;;;5046126;28;20045;-45
2022/09/01 13:26:30;;;;;;;3.05;0.52;;;22.60;60.90;;;;;;5046444;28;20033;-45
2022/09/01 13:28:59;;;;;;;0.85;0.10;;;22.80;60.60;;;;;;5046109;28;20045;-45
2022/09/01 13:31:25;;;;;;;1.17;0.00;;;23.00;60.10;;;;;;5045870;28;20033;-47